sensor_id;sensor_type;location;lat;lon;timestamp;temperature;humidity
19007;DHT22;9636;47.382;8.480;2023-03-19T00:00:09;17.10;97.60
19007;DHT22;9636;47.382;8.480;2023-03-19T00:02:38;17.10;97.30
19007;DHT22;9636;47.382;8.480;2023-03-19T00:05:05;17.10;97.30
19007;DHT22;9636;47.382;8.480;2023-03-19T00:07:32;17.10;97.30
19007;DHT22;9636;47.382;8.480;2023-03-19T00:10:01;17.10;97.40
19007;DHT22;9636;47.382;8.480;2023-03-19T00:12:27;17.10;97.40
19007;DHT22;9636;47.382;8.480;2023-03-19T00:14:54;17.00;97.40
19007;DHT22;9636;47.382;8.480;2023-03-19T00:17:21;17.00;97.50
19007;DHT22;9636;47.382;8.480;2023-03-19T00:19:48;17.00;97.50
19007;DHT22;9636;47.382;8.480;2023-03-19T00:22:15;17.00;97.50
19007;DHT22;9636;47.382;8.480;2023-03-19T00:24:43;17.00;97.60
19007;DHT22;9636;47.382;8.480;2023-03-19T00:27:11;17.00;97.60
19007;DHT22;9636;47.382;8.480;2023-03-19T00:29:38;16.90;98.00
19007;DHT22;9636;47.382;8.480;2023-03-19T00:32:05;16.90;97.60
19007;DHT22;9636;47.382;8.480;2023-03-19T00:34:32;16.90;97.60
19007;DHT22;9636;47.382;8.480;2023-03-19T00:36:59;16.90;97.70
19007;DHT22;9636;47.382;8.480;2023-03-19T00:39:26;16.90;98.00
19007;DHT22;9636;47.382;8.480;2023-03-19T00:41:53;16.90;97.70
19007;DHT22;9636;47.382;8.480;2023-03-19T00:44:21;16.90;97.70
19007;DHT22;9636;47.382;8.480;2023-03-19T00:46:48;16.90;97.70
19007;DHT22;9636;47.382;8.480;2023-03-19T00:49:15;16.80;97.70
19007;DHT22;9636;47.382;8.480;2023-03-19T00:51:41;16.80;97.70
19007;DHT22;9636;47.382;8.480;2023-03-19T00:54:10;16.80;97.80
19007;DHT22;9636;47.382;8.480;2023-03-19T00:56:37;16.80;97.80
19007;DHT22;9636;47.382;8.480;2023-03-19T00:59:04;16.80;97.80
19007;DHT22;9636;47.382;8.480;2023-03-19T01:01:33;16.80;97.90
19007;DHT22;9636;47.382;8.480;2023-03-19T01:04:00;16.80;97.90
19007;DHT22;9636;47.382;8.480;2023-03-19T01:06:26;16.80;97.90
19007;DHT22;9636;47.382;8.480;2023-03-19T01:08:53;16.70;97.90
19007;DHT22;9636;47.382;8.480;2023-03-19T01:11:20;16.70;97.90
19007;DHT22;9636;47.382;8.480;2023-03-19T01:13:47;16.70;98.00
19007;DHT22;9636;47.382;8.480;2023-03-19T01:16:14;16.70;98.00
19007;DHT22;9636;47.382;8.480;2023-03-19T01:18:42;16.70;98.00
19007;DHT22;9636;47.382;8.480;2023-03-19T01:21:08;16.70;98.00
19007;DHT22;9636;47.382;8.480;2023-03-19T01:23:36;16.70;98.10
19007;DHT22;9636;47.382;8.480;2023-03-19T01:26:02;16.60;98.10
19007;DHT22;9636;47.382;8.480;2023-03-19T01:28:30;16.60;98.10
19007;DHT22;9636;47.382;8.480;2023-03-19T01:30:58;16.60;98.10
19007;DHT22;9636;47.382;8.480;2023-03-19T01:33:26;16.60;98.10
19007;DHT22;9636;47.382;8.480;2023-03-19T01:35:54;16.60;98.10
19007;DHT22;9636;47.382;8.480;2023-03-19T01:38:22;16.60;98.10
19007;DHT22;9636;47.382;8.480;2023-03-19T01:40:50;16.60;98.20
19007;DHT22;9636;47.382;8.480;2023-03-19T01:43:18;16.50;98.10
19007;DHT22;9636;47.382;8.480;2023-03-19T01:45:46;16.50;98.20
19007;DHT22;9636;47.382;8.480;2023-03-19T01:48:20;16.50;98.20
19007;DHT22;9636;47.382;8.480;2023-03-19T01:50:50;16.60;98.20
19007;DHT22;9636;47.382;8.480;2023-03-19T01:53:23;16.50;98.20
19007;DHT22;9636;47.382;8.480;2023-03-19T01:55:55;16.50;98.20
19007;DHT22;9636;47.382;8.480;2023-03-19T01:58:24;16.50;98.30
19007;DHT22;9636;47.382;8.480;2023-03-19T02:00:51;16.50;98.30
19007;DHT22;9636;47.382;8.480;2023-03-19T02:03:18;16.40;98.30
19007;DHT22;9636;47.382;8.480;2023-03-19T02:05:48;16.40;98.30
19007;DHT22;9636;47.382;8.480;2023-03-19T02:08:16;16.40;98.30
19007;DHT22;9636;47.382;8.480;2023-03-19T02:10:46;16.40;98.30
19007;DHT22;9636;47.382;8.480;2023-03-19T02:13:14;16.40;98.30
19007;DHT22;9636;47.382;8.480;2023-03-19T02:15:41;16.40;98.40
19007;DHT22;9636;47.382;8.480;2023-03-19T02:18:08;16.40;98.40
19007;DHT22;9636;47.382;8.480;2023-03-19T02:20:43;16.40;98.40
19007;DHT22;9636;47.382;8.480;2023-03-19T02:23:16;16.40;98.40
19007;DHT22;9636;47.382;8.480;2023-03-19T02:25:59;16.40;98.50
19007;DHT22;9636;47.382;8.480;2023-03-19T02:28:27;16.40;98.50
19007;DHT22;9636;47.382;8.480;2023-03-19T02:30:54;16.40;98.50
19007;DHT22;9636;47.382;8.480;2023-03-19T02:33:21;16.30;98.50
19007;DHT22;9636;47.382;8.480;2023-03-19T02:35:50;16.30;98.50
19007;DHT22;9636;47.382;8.480;2023-03-19T02:38:18;16.30;98.50
19007;DHT22;9636;47.382;8.480;2023-03-19T02:40:50;16.30;98.50
19007;DHT22;9636;47.382;8.480;2023-03-19T02:43:21;16.30;98.60
19007;DHT22;9636;47.382;8.480;2023-03-19T02:45:48;16.30;98.50
19007;DHT22;9636;47.382;8.480;2023-03-19T02:48:15;16.30;98.60
19007;DHT22;9636;47.382;8.480;2023-03-19T02:50:42;16.30;98.60
19007;DHT22;9636;47.382;8.480;2023-03-19T02:53:08;16.30;98.60
19007;DHT22;9636;47.382;8.480;2023-03-19T02:55:35;16.30;98.60
19007;DHT22;9636;47.382;8.480;2023-03-19T02:58:02;16.30;98.60
19007;DHT22;9636;47.382;8.480;2023-03-19T03:00:31;16.20;98.60
19007;DHT22;9636;47.382;8.480;2023-03-19T03:02:57;16.20;99.00
19007;DHT22;9636;47.382;8.480;2023-03-19T03:05:24;16.20;98.70
19007;DHT22;9636;47.382;8.480;2023-03-19T03:07:51;16.20;98.70
19007;DHT22;9636;47.382;8.480;2023-03-19T03:10:18;16.20;98.80
19007;DHT22;9636;47.382;8.480;2023-03-19T03:12:45;16.20;98.80
19007;DHT22;9636;47.382;8.480;2023-03-19T03:15:12;16.20;98.80
19007;DHT22;9636;47.382;8.480;2023-03-19T03:17:42;16.20;98.80
19007;DHT22;9636;47.382;8.480;2023-03-19T03:20:10;16.10;98.80
19007;DHT22;9636;47.382;8.480;2023-03-19T03:22:38;16.10;98.80
19007;DHT22;9636;47.382;8.480;2023-03-19T03:25:05;16.10;98.80
19007;DHT22;9636;47.382;8.480;2023-03-19T03:27:34;16.10;98.80
19007;DHT22;9636;47.382;8.480;2023-03-19T03:30:02;16.10;98.90
19007;DHT22;9636;47.382;8.480;2023-03-19T03:32:29;16.10;98.90
19007;DHT22;9636;47.382;8.480;2023-03-19T03:34:57;16.10;98.90
19007;DHT22;9636;47.382;8.480;2023-03-19T03:37:24;16.10;98.90
19007;DHT22;9636;47.382;8.480;2023-03-19T03:39:51;16.10;99.00
19007;DHT22;9636;47.382;8.480;2023-03-19T03:42:18;16.10;99.00
19007;DHT22;9636;47.382;8.480;2023-03-19T03:44:45;16.10;99.00
19007;DHT22;9636;47.382;8.480;2023-03-19T03:47:12;16.10;99.00
19007;DHT22;9636;47.382;8.480;2023-03-19T03:49:39;16.00;99.00
19007;DHT22;9636;47.382;8.480;2023-03-19T03:52:08;16.00;99.00
19007;DHT22;9636;47.382;8.480;2023-03-19T03:54:34;16.00;99.00
19007;DHT22;9636;47.382;8.480;2023-03-19T03:57:01;16.00;99.10
19007;DHT22;9636;47.382;8.480;2023-03-19T03:59:28;16.00;99.10
19007;DHT22;9636;47.382;8.480;2023-03-19T04:01:55;15.90;99.10
19007;DHT22;9636;47.382;8.480;2023-03-19T04:04:22;16.00;99.20
19007;DHT22;9636;47.382;8.480;2023-03-19T04:06:49;16.00;99.20
19007;DHT22;9636;47.382;8.480;2023-03-19T04:09:17;15.90;99.20
19007;DHT22;9636;47.382;8.480;2023-03-19T04:11:44;15.90;99.20
19007;DHT22;9636;47.382;8.480;2023-03-19T04:14:10;15.90;99.30
19007;DHT22;9636;47.382;8.480;2023-03-19T04:16:37;15.90;99.20
19007;DHT22;9636;47.382;8.480;2023-03-19T04:19:04;15.90;99.20
19007;DHT22;9636;47.382;8.480;2023-03-19T04:21:32;15.90;99.30
19007;DHT22;9636;47.382;8.480;2023-03-19T04:23:59;15.90;99.30
19007;DHT22;9636;47.382;8.480;2023-03-19T04:26:28;15.90;99.30
19007;DHT22;9636;47.382;8.480;2023-03-19T04:28:54;15.80;99.30
19007;DHT22;9636;47.382;8.480;2023-03-19T04:31:23;15.80;99.30
19007;DHT22;9636;47.382;8.480;2023-03-19T04:33:49;15.80;99.30
19007;DHT22;9636;47.382;8.480;2023-03-19T04:36:16;15.90;99.40
19007;DHT22;9636;47.382;8.480;2023-03-19T04:38:44;15.80;99.40
19007;DHT22;9636;47.382;8.480;2023-03-19T04:41:11;15.80;99.40
19007;DHT22;9636;47.382;8.480;2023-03-19T04:43:39;15.80;99.40
19007;DHT22;9636;47.382;8.480;2023-03-19T04:46:06;15.80;99.40
19007;DHT22;9636;47.382;8.480;2023-03-19T04:48:33;15.80;99.80
19007;DHT22;9636;47.382;8.480;2023-03-19T04:51:01;15.80;99.50
19007;DHT22;9636;47.382;8.480;2023-03-19T04:53:28;15.80;99.50
19007;DHT22;9636;47.382;8.480;2023-03-19T04:55:55;15.80;99.50
19007;DHT22;9636;47.382;8.480;2023-03-19T04:58:22;15.80;99.50
19007;DHT22;9636;47.382;8.480;2023-03-19T05:00:51;15.70;99.50
19007;DHT22;9636;47.382;8.480;2023-03-19T05:03:18;15.70;99.50
19007;DHT22;9636;47.382;8.480;2023-03-19T05:05:45;15.70;99.60
19007;DHT22;9636;47.382;8.480;2023-03-19T05:08:11;15.70;99.60
19007;DHT22;9636;47.382;8.480;2023-03-19T05:10:39;15.70;99.60
19007;DHT22;9636;47.382;8.480;2023-03-19T05:13:06;15.70;99.70
19007;DHT22;9636;47.382;8.480;2023-03-19T05:15:33;15.70;99.70
19007;DHT22;9636;47.382;8.480;2023-03-19T05:18:01;15.70;99.80
19007;DHT22;9636;47.382;8.480;2023-03-19T05:20:28;15.60;99.70
19007;DHT22;9636;47.382;8.480;2023-03-19T05:22:55;15.70;99.80
19007;DHT22;9636;47.382;8.480;2023-03-19T05:25:22;15.70;99.80
19007;DHT22;9636;47.382;8.480;2023-03-19T05:27:48;15.60;99.80
19007;DHT22;9636;47.382;8.480;2023-03-19T05:30:15;15.60;99.80
19007;DHT22;9636;47.382;8.480;2023-03-19T05:32:43;15.60;99.80
19007;DHT22;9636;47.382;8.480;2023-03-19T05:35:12;15.60;99.90
19007;DHT22;9636;47.382;8.480;2023-03-19T05:37:39;15.60;99.90
19007;DHT22;9636;47.382;8.480;2023-03-19T05:40:07;15.60;99.90
19007;DHT22;9636;47.382;8.480;2023-03-19T05:42:34;15.60;99.90
19007;DHT22;9636;47.382;8.480;2023-03-19T05:45:01;15.60;99.90
19007;DHT22;9636;47.382;8.480;2023-03-19T05:47:29;15.60;99.90
19007;DHT22;9636;47.382;8.480;2023-03-19T05:49:55;15.50;99.90
19007;DHT22;9636;47.382;8.480;2023-03-19T05:52:24;15.50;99.90
19007;DHT22;9636;47.382;8.480;2023-03-19T05:54:50;15.50;99.90
19007;DHT22;9636;47.382;8.480;2023-03-19T05:57:17;15.50;99.90
19007;DHT22;9636;47.382;8.480;2023-03-19T05:59:44;15.50;99.90
19007;DHT22;9636;47.382;8.480;2023-03-19T06:02:11;15.50;99.90
19007;DHT22;9636;47.382;8.480;2023-03-19T06:04:38;15.50;99.90
19007;DHT22;9636;47.382;8.480;2023-03-19T06:07:05;15.50;99.90
19007;DHT22;9636;47.382;8.480;2023-03-19T06:09:33;15.50;99.90
19007;DHT22;9636;47.382;8.480;2023-03-19T06:12:00;15.40;99.90
19007;DHT22;9636;47.382;8.480;2023-03-19T06:14:27;15.40;99.90
19007;DHT22;9636;47.382;8.480;2023-03-19T06:16:54;15.40;99.90
19007;DHT22;9636;47.382;8.480;2023-03-19T06:19:21;15.40;99.90
19007;DHT22;9636;47.382;8.480;2023-03-19T06:21:48;15.40;99.90
19007;DHT22;9636;47.382;8.480;2023-03-19T06:24:15;15.40;99.90
19007;DHT22;9636;47.382;8.480;2023-03-19T06:26:43;15.40;99.90
19007;DHT22;9636;47.382;8.480;2023-03-19T06:29:09;15.40;99.90
19007;DHT22;9636;47.382;8.480;2023-03-19T06:31:36;15.40;99.90
19007;DHT22;9636;47.382;8.480;2023-03-19T06:34:04;15.40;99.90
19007;DHT22;9636;47.382;8.480;2023-03-19T06:36:31;15.40;99.90
19007;DHT22;9636;47.382;8.480;2023-03-19T06:38:58;15.40;99.90
19007;DHT22;9636;47.382;8.480;2023-03-19T06:41:25;15.30;99.90
19007;DHT22;9636;47.382;8.480;2023-03-19T06:43:53;15.40;99.90
19007;DHT22;9636;47.382;8.480;2023-03-19T06:46:20;15.30;99.90
19007;DHT22;9636;47.382;8.480;2023-03-19T06:48:47;15.40;99.90
19007;DHT22;9636;47.382;8.480;2023-03-19T06:51:14;15.40;99.90
19007;DHT22;9636;47.382;8.480;2023-03-19T06:53:41;15.40;99.90
19007;DHT22;9636;47.382;8.480;2023-03-19T06:56:07;15.30;99.90
19007;DHT22;9636;47.382;8.480;2023-03-19T06:58:34;15.40;99.90
19007;DHT22;9636;47.382;8.480;2023-03-19T07:01:03;15.40;99.90
19007;DHT22;9636;47.382;8.480;2023-03-19T07:03:30;15.40;99.90
19007;DHT22;9636;47.382;8.480;2023-03-19T07:05:57;15.30;99.90
19007;DHT22;9636;47.382;8.480;2023-03-19T07:08:24;15.40;99.90
19007;DHT22;9636;47.382;8.480;2023-03-19T07:10:54;15.40;99.90
19007;DHT22;9636;47.382;8.480;2023-03-19T07:13:21;15.40;99.90
19007;DHT22;9636;47.382;8.480;2023-03-19T07:15:48;15.40;99.90
19007;DHT22;9636;47.382;8.480;2023-03-19T07:18:16;15.40;99.90
19007;DHT22;9636;47.382;8.480;2023-03-19T07:20:42;15.50;99.90
19007;DHT22;9636;47.382;8.480;2023-03-19T07:23:09;15.50;99.90
19007;DHT22;9636;47.382;8.480;2023-03-19T07:25:36;15.60;99.90
19007;DHT22;9636;47.382;8.480;2023-03-19T07:28:03;15.60;99.90
19007;DHT22;9636;47.382;8.480;2023-03-19T07:30:30;15.60;99.90
19007;DHT22;9636;47.382;8.480;2023-03-19T07:32:57;15.70;99.90
19007;DHT22;9636;47.382;8.480;2023-03-19T07:35:25;15.80;99.90
19007;DHT22;9636;47.382;8.480;2023-03-19T07:37:52;15.90;99.90
19007;DHT22;9636;47.382;8.480;2023-03-19T07:40:19;15.90;99.90
19007;DHT22;9636;47.382;8.480;2023-03-19T07:42:45;15.90;99.90
19007;DHT22;9636;47.382;8.480;2023-03-19T07:45:12;16.00;99.90
19007;DHT22;9636;47.382;8.480;2023-03-19T07:47:39;16.20;99.90
19007;DHT22;9636;47.382;8.480;2023-03-19T07:50:07;16.30;99.80
19007;DHT22;9636;47.382;8.480;2023-03-19T07:52:36;16.40;99.70
19007;DHT22;9636;47.382;8.480;2023-03-19T07:55:03;16.60;99.60
19007;DHT22;9636;47.382;8.480;2023-03-19T07:57:31;16.60;99.60
19007;DHT22;9636;47.382;8.480;2023-03-19T07:59:58;16.70;99.70
19007;DHT22;9636;47.382;8.480;2023-03-19T08:02:26;16.70;99.80
19007;DHT22;9636;47.382;8.480;2023-03-19T08:04:57;16.70;99.80
19007;DHT22;9636;47.382;8.480;2023-03-19T08:07:26;16.90;99.60
19007;DHT22;9636;47.382;8.480;2023-03-19T08:09:57;16.90;99.50
19007;DHT22;9636;47.382;8.480;2023-03-19T08:12:24;17.10;99.50
19007;DHT22;9636;47.382;8.480;2023-03-19T08:14:52;17.20;99.40
19007;DHT22;9636;47.382;8.480;2023-03-19T08:17:20;17.30;99.40
19007;DHT22;9636;47.382;8.480;2023-03-19T08:19:47;17.40;99.30
19007;DHT22;9636;47.382;8.480;2023-03-19T08:22:14;17.50;99.10
19007;DHT22;9636;47.382;8.480;2023-03-19T08:24:42;17.70;99.00
19007;DHT22;9636;47.382;8.480;2023-03-19T08:27:11;18.10;98.50
19007;DHT22;9636;47.382;8.480;2023-03-19T08:29:38;18.00;98.60
19007;DHT22;9636;47.382;8.480;2023-03-19T08:32:07;17.90;98.80
19007;DHT22;9636;47.382;8.480;2023-03-19T08:34:35;18.00;99.00
19007;DHT22;9636;47.382;8.480;2023-03-19T08:37:02;17.90;99.30
19007;DHT22;9636;47.382;8.480;2023-03-19T08:39:30;18.00;99.40
19007;DHT22;9636;47.382;8.480;2023-03-19T08:41:57;18.00;99.40
19007;DHT22;9636;47.382;8.480;2023-03-19T08:44:25;18.10;99.30
19007;DHT22;9636;47.382;8.480;2023-03-19T08:46:52;18.20;99.30
19007;DHT22;9636;47.382;8.480;2023-03-19T08:49:19;18.20;99.90
19007;DHT22;9636;47.382;8.480;2023-03-19T08:51:46;18.30;99.50
19007;DHT22;9636;47.382;8.480;2023-03-19T08:54:14;18.40;99.30
19007;DHT22;9636;47.382;8.480;2023-03-19T08:56:42;18.50;99.50
19007;DHT22;9636;47.382;8.480;2023-03-19T08:59:08;18.50;99.40
19007;DHT22;9636;47.382;8.480;2023-03-19T09:01:37;18.60;99.50
19007;DHT22;9636;47.382;8.480;2023-03-19T09:04:03;18.70;99.60
19007;DHT22;9636;47.382;8.480;2023-03-19T09:06:30;18.80;99.60
19007;DHT22;9636;47.382;8.480;2023-03-19T09:08:57;18.80;99.40
19007;DHT22;9636;47.382;8.480;2023-03-19T09:11:24;19.00;99.30
19007;DHT22;9636;47.382;8.480;2023-03-19T09:13:51;19.10;99.30
19007;DHT22;9636;47.382;8.480;2023-03-19T09:16:17;19.20;99.30
19007;DHT22;9636;47.382;8.480;2023-03-19T09:18:45;19.20;99.10
19007;DHT22;9636;47.382;8.480;2023-03-19T09:21:12;19.30;99.30
19007;DHT22;9636;47.382;8.480;2023-03-19T09:23:40;19.30;99.70
19007;DHT22;9636;47.382;8.480;2023-03-19T09:26:07;19.40;99.50
19007;DHT22;9636;47.382;8.480;2023-03-19T09:28:35;19.50;99.90
19007;DHT22;9636;47.382;8.480;2023-03-19T09:31:07;19.60;99.60
19007;DHT22;9636;47.382;8.480;2023-03-19T09:33:36;19.60;99.50
19007;DHT22;9636;47.382;8.480;2023-03-19T09:36:05;19.70;99.90
19007;DHT22;9636;47.382;8.480;2023-03-19T09:38:34;19.70;99.90
19007;DHT22;9636;47.382;8.480;2023-03-19T09:41:07;19.70;99.90
19007;DHT22;9636;47.382;8.480;2023-03-19T09:43:55;19.80;99.90
19007;DHT22;9636;47.382;8.480;2023-03-19T09:46:28;19.80;99.90
19007;DHT22;9636;47.382;8.480;2023-03-19T09:49:02;19.80;99.90
19007;DHT22;9636;47.382;8.480;2023-03-19T09:51:38;20.00;99.90
19007;DHT22;9636;47.382;8.480;2023-03-19T09:56:59;20.10;98.60
19007;DHT22;9636;47.382;8.480;2023-03-19T09:59:28;20.20;99.30
19007;DHT22;9636;47.382;8.480;2023-03-19T10:02:05;20.30;99.30
19007;DHT22;9636;47.382;8.480;2023-03-19T10:04:50;20.30;99.40
19007;DHT22;9636;47.382;8.480;2023-03-19T10:07:39;20.40;99.50
19007;DHT22;9636;47.382;8.480;2023-03-19T10:10:29;20.50;99.70
19007;DHT22;9636;47.382;8.480;2023-03-19T10:13:08;20.50;99.50
19007;DHT22;9636;47.382;8.480;2023-03-19T10:15:36;20.50;99.50
19007;DHT22;9636;47.382;8.480;2023-03-19T10:18:08;20.50;99.60
19007;DHT22;9636;47.382;8.480;2023-03-19T10:20:45;20.60;99.50
19007;DHT22;9636;47.382;8.480;2023-03-19T10:23:29;20.60;99.90
19007;DHT22;9636;47.382;8.480;2023-03-19T10:25:59;20.70;99.90
19007;DHT22;9636;47.382;8.480;2023-03-19T10:28:28;20.70;99.80
19007;DHT22;9636;47.382;8.480;2023-03-19T10:31:03;20.70;99.90
19007;DHT22;9636;47.382;8.480;2023-03-19T10:33:39;20.70;99.90
19007;DHT22;9636;47.382;8.480;2023-03-19T10:36:09;20.80;99.80
19007;DHT22;9636;47.382;8.480;2023-03-19T10:38:41;21.10;99.00
19007;DHT22;9636;47.382;8.480;2023-03-19T10:41:25;21.50;98.20
19007;DHT22;9636;47.382;8.480;2023-03-19T10:43:59;22.00;97.30
19007;DHT22;9636;47.382;8.480;2023-03-19T10:46:27;22.70;96.00
19007;DHT22;9636;47.382;8.480;2023-03-19T10:48:53;23.30;95.00
19007;DHT22;9636;47.382;8.480;2023-03-19T10:51:23;22.80;96.00
19007;DHT22;9636;47.382;8.480;2023-03-19T10:53:53;22.50;96.60
19007;DHT22;9636;47.382;8.480;2023-03-19T10:56:23;22.20;97.30
19007;DHT22;9636;47.382;8.480;2023-03-19T10:58:58;22.10;97.50
19007;DHT22;9636;47.382;8.480;2023-03-19T11:01:27;21.90;97.70
19007;DHT22;9636;47.382;8.480;2023-03-19T11:03:55;22.00;98.00
19007;DHT22;9636;47.382;8.480;2023-03-19T11:06:25;21.90;98.00
19007;DHT22;9636;47.382;8.480;2023-03-19T11:08:57;21.90;98.20
19007;DHT22;9636;47.382;8.480;2023-03-19T11:11:35;21.90;98.30
19007;DHT22;9636;47.382;8.480;2023-03-19T11:14:06;21.90;98.60
19007;DHT22;9636;47.382;8.480;2023-03-19T11:16:46;21.90;98.40
19007;DHT22;9636;47.382;8.480;2023-03-19T11:19:19;21.90;98.50
19007;DHT22;9636;47.382;8.480;2023-03-19T11:22:00;21.90;98.50
19007;DHT22;9636;47.382;8.480;2023-03-19T11:24:35;21.90;99.00
19007;DHT22;9636;47.382;8.480;2023-03-19T11:27:04;21.90;98.90
19007;DHT22;9636;47.382;8.480;2023-03-19T11:29:34;21.90;98.90
19007;DHT22;9636;47.382;8.480;2023-03-19T11:32:12;21.90;98.80
19007;DHT22;9636;47.382;8.480;2023-03-19T11:34:49;22.00;98.70
19007;DHT22;9636;47.382;8.480;2023-03-19T11:37:25;22.20;98.30
19007;DHT22;9636;47.382;8.480;2023-03-19T11:40:02;22.40;98.10
19007;DHT22;9636;47.382;8.480;2023-03-19T11:42:44;22.50;97.40
19007;DHT22;9636;47.382;8.480;2023-03-19T11:45:24;22.70;97.20
19007;DHT22;9636;47.382;8.480;2023-03-19T11:48:09;22.80;97.30
19007;DHT22;9636;47.382;8.480;2023-03-19T11:50:46;22.90;97.00
19007;DHT22;9636;47.382;8.480;2023-03-19T11:53:22;23.00;96.90
19007;DHT22;9636;47.382;8.480;2023-03-19T11:56:01;23.10;97.00
19007;DHT22;9636;47.382;8.480;2023-03-19T11:58:50;23.40;96.60
19007;DHT22;9636;47.382;8.480;2023-03-19T12:01:28;23.60;96.10
19007;DHT22;9636;47.382;8.480;2023-03-19T12:04:22;23.70;96.30
19007;DHT22;9636;47.382;8.480;2023-03-19T12:07:00;23.60;96.40
19007;DHT22;9636;47.382;8.480;2023-03-19T12:09:34;23.60;96.50
19007;DHT22;9636;47.382;8.480;2023-03-19T12:12:10;23.60;96.80
19007;DHT22;9636;47.382;8.480;2023-03-19T12:14:49;23.50;97.20
19007;DHT22;9636;47.382;8.480;2023-03-19T12:17:33;23.50;97.50
19007;DHT22;9636;47.382;8.480;2023-03-19T12:20:15;23.50;96.90
19007;DHT22;9636;47.382;8.480;2023-03-19T12:23:03;23.40;97.30
19007;DHT22;9636;47.382;8.480;2023-03-19T12:25:47;23.40;97.50
19007;DHT22;9636;47.382;8.480;2023-03-19T12:28:23;23.40;97.80
19007;DHT22;9636;47.382;8.480;2023-03-19T12:31:10;23.40;97.30
19007;DHT22;9636;47.382;8.480;2023-03-19T12:33:45;23.40;97.70
19007;DHT22;9636;47.382;8.480;2023-03-19T12:36:16;23.50;96.90
19007;DHT22;9636;47.382;8.480;2023-03-19T12:38:47;23.60;96.30
19007;DHT22;9636;47.382;8.480;2023-03-19T12:41:19;23.60;96.40
19007;DHT22;9636;47.382;8.480;2023-03-19T12:43:54;23.60;96.30
19007;DHT22;9636;47.382;8.480;2023-03-19T12:46:26;23.70;96.10
19007;DHT22;9636;47.382;8.480;2023-03-19T12:48:58;23.80;96.50
19007;DHT22;9636;47.382;8.480;2023-03-19T12:51:33;23.90;96.80
19007;DHT22;9636;47.382;8.480;2023-03-19T12:54:05;23.90;96.20
19007;DHT22;9636;47.382;8.480;2023-03-19T12:56:38;23.90;97.00
19007;DHT22;9636;47.382;8.480;2023-03-19T12:59:12;24.00;96.40
19007;DHT22;9636;47.382;8.480;2023-03-19T13:01:45;24.10;96.70
19007;DHT22;9636;47.382;8.480;2023-03-19T13:04:15;24.10;97.00
19007;DHT22;9636;47.382;8.480;2023-03-19T13:06:50;24.10;97.20
19007;DHT22;9636;47.382;8.480;2023-03-19T13:09:26;24.10;96.60
19007;DHT22;9636;47.382;8.480;2023-03-19T13:11:59;24.00;96.60
19007;DHT22;9636;47.382;8.480;2023-03-19T13:14:35;24.00;96.60
19007;DHT22;9636;47.382;8.480;2023-03-19T13:17:10;24.00;96.60
19007;DHT22;9636;47.382;8.480;2023-03-19T13:19:42;24.00;96.70
19007;DHT22;9636;47.382;8.480;2023-03-19T13:22:13;23.90;97.00
19007;DHT22;9636;47.382;8.480;2023-03-19T13:24:41;23.90;96.90
19007;DHT22;9636;47.382;8.480;2023-03-19T13:27:14;23.90;97.50
19007;DHT22;9636;47.382;8.480;2023-03-19T13:30:10;23.90;97.10
19007;DHT22;9636;47.382;8.480;2023-03-19T13:32:44;23.90;97.50
19007;DHT22;9636;47.382;8.480;2023-03-19T13:35:30;23.90;97.40
19007;DHT22;9636;47.382;8.480;2023-03-19T13:38:01;23.90;97.50
19007;DHT22;9636;47.382;8.480;2023-03-19T13:40:46;23.90;97.50
19007;DHT22;9636;47.382;8.480;2023-03-19T13:43:41;23.90;97.50
19007;DHT22;9636;47.382;8.480;2023-03-19T13:46:36;23.80;98.40
19007;DHT22;9636;47.382;8.480;2023-03-19T13:49:26;23.70;97.90
19007;DHT22;9636;47.382;8.480;2023-03-19T13:51:54;23.70;98.20
19007;DHT22;9636;47.382;8.480;2023-03-19T13:54:32;23.60;98.40
19007;DHT22;9636;47.382;8.480;2023-03-19T13:57:18;23.60;98.80
19007;DHT22;9636;47.382;8.480;2023-03-19T13:59:48;23.50;98.40
19007;DHT22;9636;47.382;8.480;2023-03-19T14:02:47;23.50;98.30
19007;DHT22;9636;47.382;8.480;2023-03-19T14:05:17;23.50;98.50
19007;DHT22;9636;47.382;8.480;2023-03-19T14:07:50;23.40;98.30
19007;DHT22;9636;47.382;8.480;2023-03-19T14:10:21;23.40;98.30
19007;DHT22;9636;47.382;8.480;2023-03-19T14:12:50;23.40;98.70
19007;DHT22;9636;47.382;8.480;2023-03-19T14:15:20;23.30;98.40
19007;DHT22;9636;47.382;8.480;2023-03-19T14:17:56;23.30;98.90
19007;DHT22;9636;47.382;8.480;2023-03-19T14:20:26;23.30;99.00
19007;DHT22;9636;47.382;8.480;2023-03-19T14:23:01;23.30;98.90
19007;DHT22;9636;47.382;8.480;2023-03-19T14:25:54;23.20;99.20
19007;DHT22;9636;47.382;8.480;2023-03-19T14:28:24;23.10;99.20
19007;DHT22;9636;47.382;8.480;2023-03-19T14:30:55;23.00;99.70
19007;DHT22;9636;47.382;8.480;2023-03-19T14:33:27;23.00;99.80
19007;DHT22;9636;47.382;8.480;2023-03-19T14:35:55;22.90;99.80
19007;DHT22;9636;47.382;8.480;2023-03-19T14:38:29;22.90;99.80
19007;DHT22;9636;47.382;8.480;2023-03-19T14:40:59;22.80;99.90
19007;DHT22;9636;47.382;8.480;2023-03-19T14:43:44;22.70;99.80
19007;DHT22;9636;47.382;8.480;2023-03-19T14:46:22;22.70;99.90
19007;DHT22;9636;47.382;8.480;2023-03-19T14:49:19;22.70;99.90
19007;DHT22;9636;47.382;8.480;2023-03-19T14:52:05;22.60;99.90
19007;DHT22;9636;47.382;8.480;2023-03-19T14:54:36;22.50;99.90
19007;DHT22;9636;47.382;8.480;2023-03-19T14:57:07;22.50;99.90
19007;DHT22;9636;47.382;8.480;2023-03-19T14:59:41;22.40;99.90
19007;DHT22;9636;47.382;8.480;2023-03-19T15:02:19;22.30;99.90
19007;DHT22;9636;47.382;8.480;2023-03-19T15:04:48;22.30;99.90
19007;DHT22;9636;47.382;8.480;2023-03-19T15:07:18;22.20;99.90
19007;DHT22;9636;47.382;8.480;2023-03-19T15:09:48;22.20;99.90
19007;DHT22;9636;47.382;8.480;2023-03-19T15:12:49;22.10;99.90
19007;DHT22;9636;47.382;8.480;2023-03-19T15:15:29;22.10;99.90
19007;DHT22;9636;47.382;8.480;2023-03-19T15:17:59;22.10;99.90
19007;DHT22;9636;47.382;8.480;2023-03-19T15:20:32;22.00;99.90
19007;DHT22;9636;47.382;8.480;2023-03-19T15:23:00;21.90;99.90
19007;DHT22;9636;47.382;8.480;2023-03-19T15:25:29;21.80;99.90
19007;DHT22;9636;47.382;8.480;2023-03-19T15:28:05;21.80;99.90
19007;DHT22;9636;47.382;8.480;2023-03-19T15:30:32;21.70;99.90
19007;DHT22;9636;47.382;8.480;2023-03-19T15:32:59;21.70;99.90
19007;DHT22;9636;47.382;8.480;2023-03-19T15:35:30;21.60;99.90
19007;DHT22;9636;47.382;8.480;2023-03-19T15:37:59;21.60;99.90
19007;DHT22;9636;47.382;8.480;2023-03-19T15:40:28;21.60;99.90
19007;DHT22;9636;47.382;8.480;2023-03-19T15:42:57;21.50;99.90
19007;DHT22;9636;47.382;8.480;2023-03-19T15:45:26;21.40;99.90
19007;DHT22;9636;47.382;8.480;2023-03-19T15:47:58;21.40;99.90
19007;DHT22;9636;47.382;8.480;2023-03-19T15:50:29;21.40;99.90
19007;DHT22;9636;47.382;8.480;2023-03-19T15:53:01;21.40;99.90
19007;DHT22;9636;47.382;8.480;2023-03-19T15:55:28;21.30;99.90
19007;DHT22;9636;47.382;8.480;2023-03-19T15:57:57;21.20;99.90
19007;DHT22;9636;47.382;8.480;2023-03-19T16:00:28;21.20;99.90
19007;DHT22;9636;47.382;8.480;2023-03-19T16:02:55;21.20;99.90
19007;DHT22;9636;47.382;8.480;2023-03-19T16:05:24;21.10;99.90
19007;DHT22;9636;47.382;8.480;2023-03-19T16:07:57;21.10;99.90